sensor_id;sensor_type;location;lat;lon;timestamp;temperature;humidity
69418;DHT22;56610;48.872;2.400;2022-09-13T00:00:31;25.10;99.20
69418;DHT22;56610;48.872;2.400;2022-09-13T00:02:56;25.10;99.30
69418;DHT22;56610;48.872;2.400;2022-09-13T00:05:22;25.10;99.40
69418;DHT22;56610;48.872;2.400;2022-09-13T00:07:48;25.00;99.90
69418;DHT22;56610;48.872;2.400;2022-09-13T00:10:14;24.90;99.90
69418;DHT22;56610;48.872;2.400;2022-09-13T00:12:39;24.80;99.90
69418;DHT22;56610;48.872;2.400;2022-09-13T00:15:05;24.70;99.90
69418;DHT22;56610;48.872;2.400;2022-09-13T00:17:31;24.60;99.90
69418;DHT22;56610;48.872;2.400;2022-09-13T00:19:57;24.60;99.90
69418;DHT22;56610;48.872;2.400;2022-09-13T00:22:22;24.60;99.90
69418;DHT22;56610;48.872;2.400;2022-09-13T00:24:48;24.60;99.90
69418;DHT22;56610;48.872;2.400;2022-09-13T00:27:13;24.60;99.90
69418;DHT22;56610;48.872;2.400;2022-09-13T00:29:39;24.50;99.90
69418;DHT22;56610;48.872;2.400;2022-09-13T00:32:04;24.50;99.90
69418;DHT22;56610;48.872;2.400;2022-09-13T00:34:30;24.40;99.90
69418;DHT22;56610;48.872;2.400;2022-09-13T00:36:56;24.50;99.90
69418;DHT22;56610;48.872;2.400;2022-09-13T00:39:21;24.50;99.90
69418;DHT22;56610;48.872;2.400;2022-09-13T00:41:47;24.50;99.90
69418;DHT22;56610;48.872;2.400;2022-09-13T00:50:23;24.80;99.90
69418;DHT22;56610;48.872;2.400;2022-09-13T00:53:07;24.90;99.90
69418;DHT22;56610;48.872;2.400;2022-09-13T00:55:47;24.90;99.90
69418;DHT22;56610;48.872;2.400;2022-09-13T00:58:22;24.80;99.90
69418;DHT22;56610;48.872;2.400;2022-09-13T01:00:50;24.80;99.90
69418;DHT22;56610;48.872;2.400;2022-09-13T01:03:18;24.80;99.90
69418;DHT22;56610;48.872;2.400;2022-09-13T01:05:52;24.80;99.90
69418;DHT22;56610;48.872;2.400;2022-09-13T01:08:18;24.90;99.90
69418;DHT22;56610;48.872;2.400;2022-09-13T01:10:50;24.90;99.90
69418;DHT22;56610;48.872;2.400;2022-09-13T01:13:19;25.00;99.90
69418;DHT22;56610;48.872;2.400;2022-09-13T01:15:45;25.00;99.90
69418;DHT22;56610;48.872;2.400;2022-09-13T01:18:12;25.10;99.90
69418;DHT22;56610;48.872;2.400;2022-09-13T01:34:23;25.20;99.80
69418;DHT22;56610;48.872;2.400;2022-09-13T01:37:04;25.10;99.90
69418;DHT22;56610;48.872;2.400;2022-09-13T01:39:41;25.20;99.90
69418;DHT22;56610;48.872;2.400;2022-09-13T01:48:16;25.40;99.60
69418;DHT22;56610;48.872;2.400;2022-09-13T01:51:04;25.30;99.60
69418;DHT22;56610;48.872;2.400;2022-09-13T02:01:56;25.30;99.90
69418;DHT22;56610;48.872;2.400;2022-09-13T02:04:28;25.30;99.90
69418;DHT22;56610;48.872;2.400;2022-09-13T02:07:28;25.20;99.90
69418;DHT22;56610;48.872;2.400;2022-09-13T02:09:57;25.10;99.90
69418;DHT22;56610;48.872;2.400;2022-09-13T02:12:26;25.10;99.90
69418;DHT22;56610;48.872;2.400;2022-09-13T02:15:15;24.90;99.90
69418;DHT22;56610;48.872;2.400;2022-09-13T02:17:47;24.90;99.90
69418;DHT22;56610;48.872;2.400;2022-09-13T02:20:16;24.90;99.90
69418;DHT22;56610;48.872;2.400;2022-09-13T02:22:48;24.90;99.90
69418;DHT22;56610;48.872;2.400;2022-09-13T02:25:18;24.90;99.90
69418;DHT22;56610;48.872;2.400;2022-09-13T02:27:47;24.80;99.90
69418;DHT22;56610;48.872;2.400;2022-09-13T02:30:14;24.80;99.90
69418;DHT22;56610;48.872;2.400;2022-09-13T02:35:19;24.50;99.90
69418;DHT22;56610;48.872;2.400;2022-09-13T02:37:54;24.50;99.90
69418;DHT22;56610;48.872;2.400;2022-09-13T02:40:26;24.50;99.90
69418;DHT22;56610;48.872;2.400;2022-09-13T02:42:59;24.50;99.90
69418;DHT22;56610;48.872;2.400;2022-09-13T02:45:32;24.50;99.90
69418;DHT22;56610;48.872;2.400;2022-09-13T02:48:07;24.60;99.90
69418;DHT22;56610;48.872;2.400;2022-09-13T02:50:45;24.60;99.90
69418;DHT22;56610;48.872;2.400;2022-09-13T02:56:09;24.60;99.90
69418;DHT22;56610;48.872;2.400;2022-09-13T03:01:11;24.50;99.90
69418;DHT22;56610;48.872;2.400;2022-09-13T03:03:36;24.50;99.90
69418;DHT22;56610;48.872;2.400;2022-09-13T03:06:02;24.30;99.90
69418;DHT22;56610;48.872;2.400;2022-09-13T03:08:28;24.30;99.90
69418;DHT22;56610;48.872;2.400;2022-09-13T03:11:11;24.40;99.90
69418;DHT22;56610;48.872;2.400;2022-09-13T03:18:50;24.60;99.90
69418;DHT22;56610;48.872;2.400;2022-09-13T03:24:02;24.80;99.90
69418;DHT22;56610;48.872;2.400;2022-09-13T03:26:44;24.80;99.90
69418;DHT22;56610;48.872;2.400;2022-09-13T03:32:35;24.90;99.90
69418;DHT22;56610;48.872;2.400;2022-09-13T03:36:00;24.90;99.90
69418;DHT22;56610;48.872;2.400;2022-09-13T03:38:24;24.80;99.90
69418;DHT22;56610;48.872;2.400;2022-09-13T03:41:12;24.80;99.90
69418;DHT22;56610;48.872;2.400;2022-09-13T03:43:55;24.70;99.90
69418;DHT22;56610;48.872;2.400;2022-09-13T03:46:29;24.70;99.90
69418;DHT22;56610;48.872;2.400;2022-09-13T03:48:59;24.70;99.90
69418;DHT22;56610;48.872;2.400;2022-09-13T03:51:25;24.80;99.90
69418;DHT22;56610;48.872;2.400;2022-09-13T03:53:54;24.80;99.90
69418;DHT22;56610;48.872;2.400;2022-09-13T03:56:23;24.80;99.90
69418;DHT22;56610;48.872;2.400;2022-09-13T03:58:49;24.80;99.90
69418;DHT22;56610;48.872;2.400;2022-09-13T04:01:20;24.70;99.90
69418;DHT22;56610;48.872;2.400;2022-09-13T04:03:47;24.70;99.90
69418;DHT22;56610;48.872;2.400;2022-09-13T04:06:12;24.70;99.90
69418;DHT22;56610;48.872;2.400;2022-09-13T04:08:38;24.80;99.90
69418;DHT22;56610;48.872;2.400;2022-09-13T04:11:04;24.70;99.90
69418;DHT22;56610;48.872;2.400;2022-09-13T04:13:50;24.70;99.90
69418;DHT22;56610;48.872;2.400;2022-09-13T04:16:17;24.70;99.90
69418;DHT22;56610;48.872;2.400;2022-09-13T04:18:42;24.70;99.90
69418;DHT22;56610;48.872;2.400;2022-09-13T04:21:08;24.80;99.90
69418;DHT22;56610;48.872;2.400;2022-09-13T04:23:33;24.80;99.90
69418;DHT22;56610;48.872;2.400;2022-09-13T04:26:03;24.80;99.90
69418;DHT22;56610;48.872;2.400;2022-09-13T04:28:29;24.90;99.90
69418;DHT22;56610;48.872;2.400;2022-09-13T04:30:55;24.90;99.90
69418;DHT22;56610;48.872;2.400;2022-09-13T04:33:20;24.90;99.90
69418;DHT22;56610;48.872;2.400;2022-09-13T04:35:46;24.80;99.90
69418;DHT22;56610;48.872;2.400;2022-09-13T04:38:11;24.70;99.90
69418;DHT22;56610;48.872;2.400;2022-09-13T04:40:37;24.70;99.90
69418;DHT22;56610;48.872;2.400;2022-09-13T04:43:06;24.60;99.90
69418;DHT22;56610;48.872;2.400;2022-09-13T04:45:36;24.60;99.90
69418;DHT22;56610;48.872;2.400;2022-09-13T04:48:02;24.50;99.90
69418;DHT22;56610;48.872;2.400;2022-09-13T04:50:27;24.40;99.90
69418;DHT22;56610;48.872;2.400;2022-09-13T04:52:54;24.20;99.90
69418;DHT22;56610;48.872;2.400;2022-09-13T04:55:19;24.20;99.90
69418;DHT22;56610;48.872;2.400;2022-09-13T04:57:45;24.30;99.90
69418;DHT22;56610;48.872;2.400;2022-09-13T05:00:11;24.00;99.90
69418;DHT22;56610;48.872;2.400;2022-09-13T05:02:37;24.00;99.90
69418;DHT22;56610;48.872;2.400;2022-09-13T05:05:02;24.10;99.90
69418;DHT22;56610;48.872;2.400;2022-09-13T05:07:28;24.00;99.90
69418;DHT22;56610;48.872;2.400;2022-09-13T05:09:53;24.00;99.90
69418;DHT22;56610;48.872;2.400;2022-09-13T05:12:19;24.00;99.90
69418;DHT22;56610;48.872;2.400;2022-09-13T05:14:45;24.00;99.90
69418;DHT22;56610;48.872;2.400;2022-09-13T05:17:11;23.90;99.90
69418;DHT22;56610;48.872;2.400;2022-09-13T05:19:36;23.90;99.90
69418;DHT22;56610;48.872;2.400;2022-09-13T05:22:02;23.90;99.90
69418;DHT22;56610;48.872;2.400;2022-09-13T05:24:28;23.80;99.90
69418;DHT22;56610;48.872;2.400;2022-09-13T05:26:53;23.70;99.90
69418;DHT22;56610;48.872;2.400;2022-09-13T05:29:19;23.50;99.90
69418;DHT22;56610;48.872;2.400;2022-09-13T05:31:44;23.40;99.90
69418;DHT22;56610;48.872;2.400;2022-09-13T05:34:12;23.20;99.90
69418;DHT22;56610;48.872;2.400;2022-09-13T05:36:39;23.00;99.90
69418;DHT22;56610;48.872;2.400;2022-09-13T05:39:05;22.80;99.90
69418;DHT22;56610;48.872;2.400;2022-09-13T05:41:30;22.70;99.90
69418;DHT22;56610;48.872;2.400;2022-09-13T05:43:57;22.60;99.90
69418;DHT22;56610;48.872;2.400;2022-09-13T05:46:22;22.60;99.90
69418;DHT22;56610;48.872;2.400;2022-09-13T05:48:48;22.80;99.90
69418;DHT22;56610;48.872;2.400;2022-09-13T05:51:14;23.00;99.90
69418;DHT22;56610;48.872;2.400;2022-09-13T05:53:43;23.10;99.90
69418;DHT22;56610;48.872;2.400;2022-09-13T05:56:11;23.10;99.90
69418;DHT22;56610;48.872;2.400;2022-09-13T05:58:40;23.30;99.90
69418;DHT22;56610;48.872;2.400;2022-09-13T06:01:06;23.40;99.90
69418;DHT22;56610;48.872;2.400;2022-09-13T06:03:32;23.60;99.90
69418;DHT22;56610;48.872;2.400;2022-09-13T06:05:58;23.70;99.90
69418;DHT22;56610;48.872;2.400;2022-09-13T06:08:28;23.80;99.90
69418;DHT22;56610;48.872;2.400;2022-09-13T06:11:06;23.70;99.90
69418;DHT22;56610;48.872;2.400;2022-09-13T06:13:32;23.70;99.90
69418;DHT22;56610;48.872;2.400;2022-09-13T06:15:59;23.70;99.90
69418;DHT22;56610;48.872;2.400;2022-09-13T06:18:25;23.70;99.90
69418;DHT22;56610;48.872;2.400;2022-09-13T06:20:57;23.70;99.90
69418;DHT22;56610;48.872;2.400;2022-09-13T06:23:24;23.60;99.90
69418;DHT22;56610;48.872;2.400;2022-09-13T06:26:07;23.60;99.90
69418;DHT22;56610;48.872;2.400;2022-09-13T06:28:34;23.70;99.90
69418;DHT22;56610;48.872;2.400;2022-09-13T06:31:08;23.90;99.90
69418;DHT22;56610;48.872;2.400;2022-09-13T06:33:36;23.80;99.90
69418;DHT22;56610;48.872;2.400;2022-09-13T06:36:04;23.90;99.90
69418;DHT22;56610;48.872;2.400;2022-09-13T06:38:30;23.80;99.90
69418;DHT22;56610;48.872;2.400;2022-09-13T06:41:16;23.70;99.90
69418;DHT22;56610;48.872;2.400;2022-09-13T06:43:43;23.70;99.90
69418;DHT22;56610;48.872;2.400;2022-09-13T06:46:11;23.80;99.90
69418;DHT22;56610;48.872;2.400;2022-09-13T06:48:39;23.80;99.90
69418;DHT22;56610;48.872;2.400;2022-09-13T06:51:07;23.80;99.90
69418;DHT22;56610;48.872;2.400;2022-09-13T06:53:34;23.80;99.90
69418;DHT22;56610;48.872;2.400;2022-09-13T06:56:06;23.80;99.90
69418;DHT22;56610;48.872;2.400;2022-09-13T06:58:33;23.80;99.90
69418;DHT22;56610;48.872;2.400;2022-09-13T07:01:10;23.70;99.90
69418;DHT22;56610;48.872;2.400;2022-09-13T07:03:38;23.70;99.90
69418;DHT22;56610;48.872;2.400;2022-09-13T07:08:37;23.60;99.90
69418;DHT22;56610;48.872;2.400;2022-09-13T07:11:02;23.50;99.90
69418;DHT22;56610;48.872;2.400;2022-09-13T07:13:28;23.40;99.90
69418;DHT22;56610;48.872;2.400;2022-09-13T07:16:05;23.50;99.90
69418;DHT22;56610;48.872;2.400;2022-09-13T07:18:31;23.60;99.90
69418;DHT22;56610;48.872;2.400;2022-09-13T07:21:05;23.60;99.90
69418;DHT22;56610;48.872;2.400;2022-09-13T07:23:33;23.50;99.90
69418;DHT22;56610;48.872;2.400;2022-09-13T07:25:59;23.60;99.90
69418;DHT22;56610;48.872;2.400;2022-09-13T07:28:37;23.70;99.90
69418;DHT22;56610;48.872;2.400;2022-09-13T07:31:22;23.60;99.90
69418;DHT22;56610;48.872;2.400;2022-09-13T07:34:02;23.60;99.90
69418;DHT22;56610;48.872;2.400;2022-09-13T07:36:31;23.70;99.90
69418;DHT22;56610;48.872;2.400;2022-09-13T07:38:57;23.80;99.90
69418;DHT22;56610;48.872;2.400;2022-09-13T07:41:24;24.00;99.90
69418;DHT22;56610;48.872;2.400;2022-09-13T07:43:51;24.20;99.90
69418;DHT22;56610;48.872;2.400;2022-09-13T07:46:19;24.30;99.90
69418;DHT22;56610;48.872;2.400;2022-09-13T07:48:46;24.30;99.90
69418;DHT22;56610;48.872;2.400;2022-09-13T07:53:38;24.60;99.90
69418;DHT22;56610;48.872;2.400;2022-09-13T07:56:07;24.50;99.90
69418;DHT22;56610;48.872;2.400;2022-09-13T07:58:34;24.40;99.90
69418;DHT22;56610;48.872;2.400;2022-09-13T08:03:30;24.40;99.90
69418;DHT22;56610;48.872;2.400;2022-09-13T08:05:55;24.50;99.90
69418;DHT22;56610;48.872;2.400;2022-09-13T08:08:21;24.50;99.90
69418;DHT22;56610;48.872;2.400;2022-09-13T08:10:49;24.40;99.90
69418;DHT22;56610;48.872;2.400;2022-09-13T08:13:15;24.30;99.90
69418;DHT22;56610;48.872;2.400;2022-09-13T08:15:42;24.40;99.90
69418;DHT22;56610;48.872;2.400;2022-09-13T08:18:07;24.50;99.90
69418;DHT22;56610;48.872;2.400;2022-09-13T08:20:38;24.60;99.90
69418;DHT22;56610;48.872;2.400;2022-09-13T08:23:05;24.70;99.90
69418;DHT22;56610;48.872;2.400;2022-09-13T08:25:32;24.90;99.90
69418;DHT22;56610;48.872;2.400;2022-09-13T08:27:59;25.10;99.90
69418;DHT22;56610;48.872;2.400;2022-09-13T08:30:26;25.10;99.90
69418;DHT22;56610;48.872;2.400;2022-09-13T08:33:00;25.20;99.90
69418;DHT22;56610;48.872;2.400;2022-09-13T08:35:31;25.30;99.90
69418;DHT22;56610;48.872;2.400;2022-09-13T08:37:57;25.30;99.90
69418;DHT22;56610;48.872;2.400;2022-09-13T08:40:26;25.40;99.90
69418;DHT22;56610;48.872;2.400;2022-09-13T08:43:14;25.40;99.90
69418;DHT22;56610;48.872;2.400;2022-09-13T08:45:41;25.40;99.90
69418;DHT22;56610;48.872;2.400;2022-09-13T08:48:17;25.40;99.90
69418;DHT22;56610;48.872;2.400;2022-09-13T08:50:43;25.40;99.90
69418;DHT22;56610;48.872;2.400;2022-09-13T08:53:17;25.50;99.90
69418;DHT22;56610;48.872;2.400;2022-09-13T08:56:07;25.50;99.90
69418;DHT22;56610;48.872;2.400;2022-09-13T08:58:43;25.60;99.90
69418;DHT22;56610;48.872;2.400;2022-09-13T09:03:50;25.70;99.90
69418;DHT22;56610;48.872;2.400;2022-09-13T09:06:19;25.80;99.90
69418;DHT22;56610;48.872;2.400;2022-09-13T09:08:50;25.80;99.90
69418;DHT22;56610;48.872;2.400;2022-09-13T09:14:54;26.00;99.90
69418;DHT22;56610;48.872;2.400;2022-09-13T09:17:02;26.10;99.90
69418;DHT22;56610;48.872;2.400;2022-09-13T09:19:35;26.20;99.90
69418;DHT22;56610;48.872;2.400;2022-09-13T09:22:05;26.20;99.90
69418;DHT22;56610;48.872;2.400;2022-09-13T09:24:34;26.20;99.90
69418;DHT22;56610;48.872;2.400;2022-09-13T09:27:04;26.40;99.90
69418;DHT22;56610;48.872;2.400;2022-09-13T09:29:37;26.70;99.90
69418;DHT22;56610;48.872;2.400;2022-09-13T09:35:15;26.60;99.90
69418;DHT22;56610;48.872;2.400;2022-09-13T09:37:45;26.40;99.90
69418;DHT22;56610;48.872;2.400;2022-09-13T09:40:14;26.20;99.90
69418;DHT22;56610;48.872;2.400;2022-09-13T09:42:44;26.00;99.90
69418;DHT22;56610;48.872;2.400;2022-09-13T09:45:24;25.80;99.90
69418;DHT22;56610;48.872;2.400;2022-09-13T09:47:52;25.80;99.90
69418;DHT22;56610;48.872;2.400;2022-09-13T09:50:20;25.90;99.90
69418;DHT22;56610;48.872;2.400;2022-09-13T09:53:02;25.90;99.90
69418;DHT22;56610;48.872;2.400;2022-09-13T09:58:04;26.00;99.90
69418;DHT22;56610;48.872;2.400;2022-09-13T10:00:39;26.30;99.90
69418;DHT22;56610;48.872;2.400;2022-09-13T10:03:27;26.30;99.90
69418;DHT22;56610;48.872;2.400;2022-09-13T10:06:13;26.40;99.90
69418;DHT22;56610;48.872;2.400;2022-09-13T10:08:40;26.50;99.90
69418;DHT22;56610;48.872;2.400;2022-09-13T10:11:07;26.60;99.90
69418;DHT22;56610;48.872;2.400;2022-09-13T10:13:34;26.80;99.90
69418;DHT22;56610;48.872;2.400;2022-09-13T10:18:29;27.00;99.90
69418;DHT22;56610;48.872;2.400;2022-09-13T10:23:39;27.40;99.90
69418;DHT22;56610;48.872;2.400;2022-09-13T10:26:17;27.50;99.90
69418;DHT22;56610;48.872;2.400;2022-09-13T10:29:05;27.60;99.90
69418;DHT22;56610;48.872;2.400;2022-09-13T10:31:40;27.70;99.90
69418;DHT22;56610;48.872;2.400;2022-09-13T10:34:15;27.90;99.90
69418;DHT22;56610;48.872;2.400;2022-09-13T10:39:21;28.00;99.90
69418;DHT22;56610;48.872;2.400;2022-09-13T10:42:04;28.00;99.90
69418;DHT22;56610;48.872;2.400;2022-09-13T10:44:44;28.00;99.90
69418;DHT22;56610;48.872;2.400;2022-09-13T10:47:17;28.10;99.90
69418;DHT22;56610;48.872;2.400;2022-09-13T10:49:49;28.00;99.90
69418;DHT22;56610;48.872;2.400;2022-09-13T10:52:42;27.70;99.90
69418;DHT22;56610;48.872;2.400;2022-09-13T10:57:44;27.50;99.90
69418;DHT22;56610;48.872;2.400;2022-09-13T11:00:12;27.40;99.90
69418;DHT22;56610;48.872;2.400;2022-09-13T11:14:17;27.30;99.90
69418;DHT22;56610;48.872;2.400;2022-09-13T11:23:00;27.40;99.80
69418;DHT22;56610;48.872;2.400;2022-09-13T11:25:43;27.50;99.60
69418;DHT22;56610;48.872;2.400;2022-09-13T11:28:19;27.60;99.40
69418;DHT22;56610;48.872;2.400;2022-09-13T11:34:05;27.80;98.80
69418;DHT22;56610;48.872;2.400;2022-09-13T11:36:55;27.80;98.20
69418;DHT22;56610;48.872;2.400;2022-09-13T11:42:22;28.10;98.10
69418;DHT22;56610;48.872;2.400;2022-09-13T11:45:17;28.10;97.90
69418;DHT22;56610;48.872;2.400;2022-09-13T11:50:45;28.30;97.50
69418;DHT22;56610;48.872;2.400;2022-09-13T11:56:04;28.20;97.70
69418;DHT22;56610;48.872;2.400;2022-09-13T11:58:46;28.20;97.70
69418;DHT22;56610;48.872;2.400;2022-09-13T12:01:18;28.20;97.90
69418;DHT22;56610;48.872;2.400;2022-09-13T12:04:05;28.30;98.10
69418;DHT22;56610;48.872;2.400;2022-09-13T12:06:43;28.30;97.60
69418;DHT22;56610;48.872;2.400;2022-09-13T12:09:34;28.30;97.40
69418;DHT22;56610;48.872;2.400;2022-09-13T12:12:09;28.30;97.50
69418;DHT22;56610;48.872;2.400;2022-09-13T12:17:23;28.20;97.70
69418;DHT22;56610;48.872;2.400;2022-09-13T12:19:53;28.10;97.30
69418;DHT22;56610;48.872;2.400;2022-09-13T12:22:22;28.10;97.60
69418;DHT22;56610;48.872;2.400;2022-09-13T12:24:55;28.00;97.80
69418;DHT22;56610;48.872;2.400;2022-09-13T12:27:55;28.00;97.70
69418;DHT22;56610;48.872;2.400;2022-09-13T12:30:27;28.10;97.90
69418;DHT22;56610;48.872;2.400;2022-09-13T12:32:57;28.20;97.70
69418;DHT22;56610;48.872;2.400;2022-09-13T12:35:33;28.20;97.60
69418;DHT22;56610;48.872;2.400;2022-09-13T12:41:03;28.40;97.80
69418;DHT22;56610;48.872;2.400;2022-09-13T12:52:05;28.40;97.40
69418;DHT22;56610;48.872;2.400;2022-09-13T12:57:48;28.60;97.20
69418;DHT22;56610;48.872;2.400;2022-09-13T13:00:25;28.50;97.20
69418;DHT22;56610;48.872;2.400;2022-09-13T13:03:10;28.50;97.10
69418;DHT22;56610;48.872;2.400;2022-09-13T13:06:05;28.50;97.20
69418;DHT22;56610;48.872;2.400;2022-09-13T13:08:32;28.60;97.30
69418;DHT22;56610;48.872;2.400;2022-09-13T13:11:12;28.60;96.90
69418;DHT22;56610;48.872;2.400;2022-09-13T13:13:55;28.50;97.10
69418;DHT22;56610;48.872;2.400;2022-09-13T13:16:29;28.50;97.10
69418;DHT22;56610;48.872;2.400;2022-09-13T13:18:57;28.50;97.10
69418;DHT22;56610;48.872;2.400;2022-09-13T13:21:38;28.50;97.20
69418;DHT22;56610;48.872;2.400;2022-09-13T13:29:11;28.50;98.10
69418;DHT22;56610;48.872;2.400;2022-09-13T13:31:40;28.50;97.80
69418;DHT22;56610;48.872;2.400;2022-09-13T13:46:53;29.30;97.20
69418;DHT22;56610;48.872;2.400;2022-09-13T13:57:37;29.50;96.20
69418;DHT22;56610;48.872;2.400;2022-09-13T14:00:18;29.40;96.50
69418;DHT22;56610;48.872;2.400;2022-09-13T14:14:31;29.00;96.70
69418;DHT22;56610;48.872;2.400;2022-09-13T14:19:51;29.00;96.80
69418;DHT22;56610;48.872;2.400;2022-09-13T14:22:22;29.00;97.00
69418;DHT22;56610;48.872;2.400;2022-09-13T14:24:50;28.90;97.20
69418;DHT22;56610;48.872;2.400;2022-09-13T14:27:38;28.80;97.20
69418;DHT22;56610;48.872;2.400;2022-09-13T14:30:14;28.70;97.30
69418;DHT22;56610;48.872;2.400;2022-09-13T14:32:44;28.70;97.50
69418;DHT22;56610;48.872;2.400;2022-09-13T14:37:50;28.70;97.40
69418;DHT22;56610;48.872;2.400;2022-09-13T14:42:45;28.80;97.40
69418;DHT22;56610;48.872;2.400;2022-09-13T14:45:13;28.80;97.30
69418;DHT22;56610;48.872;2.400;2022-09-13T14:48:03;28.90;97.40
69418;DHT22;56610;48.872;2.400;2022-09-13T14:50:35;28.90;97.30
69418;DHT22;56610;48.872;2.400;2022-09-13T14:53:25;29.00;97.40
69418;DHT22;56610;48.872;2.400;2022-09-13T14:55:58;29.10;97.40
69418;DHT22;56610;48.872;2.400;2022-09-13T14:58:32;29.20;97.20
69418;DHT22;56610;48.872;2.400;2022-09-13T15:01:09;29.10;97.20
69418;DHT22;56610;48.872;2.400;2022-09-13T15:03:35;29.10;97.30
69418;DHT22;56610;48.872;2.400;2022-09-13T15:06:04;29.10;97.20
69418;DHT22;56610;48.872;2.400;2022-09-13T15:11:06;29.00;97.50
69418;DHT22;56610;48.872;2.400;2022-09-13T15:13:37;28.90;97.50
69418;DHT22;56610;48.872;2.400;2022-09-13T15:16:29;28.90;97.60
69418;DHT22;56610;48.872;2.400;2022-09-13T15:19:16;28.90;97.80
69418;DHT22;56610;48.872;2.400;2022-09-13T15:21:42;29.00;97.80
69418;DHT22;56610;48.872;2.400;2022-09-13T15:24:29;29.00;97.70
69418;DHT22;56610;48.872;2.400;2022-09-13T15:27:04;29.00;97.70
69418;DHT22;56610;48.872;2.400;2022-09-13T15:29:30;29.00;98.10
69418;DHT22;56610;48.872;2.400;2022-09-13T15:32:00;28.90;98.10
69418;DHT22;56610;48.872;2.400;2022-09-13T15:34:27;28.90;98.10
69418;DHT22;56610;48.872;2.400;2022-09-13T15:39:42;28.90;98.20
69418;DHT22;56610;48.872;2.400;2022-09-13T15:42:08;28.90;98.30
69418;DHT22;56610;48.872;2.400;2022-09-13T15:44:33;28.90;98.20
69418;DHT22;56610;48.872;2.400;2022-09-13T15:47:00;28.90;98.30
69418;DHT22;56610;48.872;2.400;2022-09-13T15:49:29;29.00;98.10
69418;DHT22;56610;48.872;2.400;2022-09-13T15:52:00;29.00;98.20
69418;DHT22;56610;48.872;2.400;2022-09-13T15:54:35;29.00;98.40
69418;DHT22;56610;48.872;2.400;2022-09-13T15:57:05;29.10;98.20
69418;DHT22;56610;48.872;2.400;2022-09-13T15:59:31;29.30;98.10
69418;DHT22;56610;48.872;2.400;2022-09-13T16:01:57;29.30;97.90
69418;DHT22;56610;48.872;2.400;2022-09-13T16:04:24;29.30;98.20
69418;DHT22;56610;48.872;2.400;2022-09-13T16:06:49;29.30;98.20
69418;DHT22;56610;48.872;2.400;2022-09-13T16:09:20;29.40;98.30
69418;DHT22;56610;48.872;2.400;2022-09-13T16:11:47;29.40;97.90
69418;DHT22;56610;48.872;2.400;2022-09-13T16:14:13;29.30;98.00
69418;DHT22;56610;48.872;2.400;2022-09-13T16:16:39;29.30;98.00
69418;DHT22;56610;48.872;2.400;2022-09-13T16:19:05;29.30;98.30
69418;DHT22;56610;48.872;2.400;2022-09-13T16:21:30;29.20;98.20
69418;DHT22;56610;48.872;2.400;2022-09-13T16:23:56;29.20;98.50
69418;DHT22;56610;48.872;2.400;2022-09-13T16:26:22;29.30;98.20
69418;DHT22;56610;48.872;2.400;2022-09-13T16:28:47;29.30;98.40
69418;DHT22;56610;48.872;2.400;2022-09-13T16:31:13;29.30;98.40
69418;DHT22;56610;48.872;2.400;2022-09-13T16:33:41;29.40;98.30
69418;DHT22;56610;48.872;2.400;2022-09-13T16:36:10;29.40;98.30
69418;DHT22;56610;48.872;2.400;2022-09-13T16:38:36;29.30;98.50
69418;DHT22;56610;48.872;2.400;2022-09-13T16:41:04;29.20;98.50
69418;DHT22;56610;48.872;2.400;2022-09-13T16:43:30;29.20;98.60
69418;DHT22;56610;48.872;2.400;2022-09-13T16:45:57;29.20;98.70
69418;DHT22;56610;48.872;2.400;2022-09-13T16:51:13;29.10;98.60
69418;DHT22;56610;48.872;2.400;2022-09-13T16:53:40;29.00;98.60
69418;DHT22;56610;48.872;2.400;2022-09-13T16:56:06;29.00;98.70
69418;DHT22;56610;48.872;2.400;2022-09-13T16:58:35;28.90;98.80
69418;DHT22;56610;48.872;2.400;2022-09-13T17:01:03;28.90;98.90
69418;DHT22;56610;48.872;2.400;2022-09-13T17:03:30;28.80;99.00
69418;DHT22;56610;48.872;2.400;2022-09-13T17:05:59;28.70;99.20
69418;DHT22;56610;48.872;2.400;2022-09-13T17:08:26;28.60;99.30
69418;DHT22;56610;48.872;2.400;2022-09-13T17:10:51;28.60;99.30
69418;DHT22;56610;48.872;2.400;2022-09-13T17:13:17;28.50;99.50
69418;DHT22;56610;48.872;2.400;2022-09-13T17:15:43;28.50;99.50
69418;DHT22;56610;48.872;2.400;2022-09-13T17:18:09;28.50;99.50
69418;DHT22;56610;48.872;2.400;2022-09-13T17:20:35;28.40;99.60
69418;DHT22;56610;48.872;2.400;2022-09-13T17:23:00;28.40;99.60
69418;DHT22;56610;48.872;2.400;2022-09-13T17:25:26;28.40;99.90
69418;DHT22;56610;48.872;2.400;2022-09-13T17:27:51;28.40;99.90
69418;DHT22;56610;48.872;2.400;2022-09-13T17:30:17;28.40;99.90
69418;DHT22;56610;48.872;2.400;2022-09-13T17:32:43;28.40;99.90
69418;DHT22;56610;48.872;2.400;2022-09-13T17:35:09;28.40;99.90
69418;DHT22;56610;48.872;2.400;2022-09-13T17:37:36;28.40;99.90
69418;DHT22;56610;48.872;2.400;2022-09-13T17:40:02;28.40;99.90
69418;DHT22;56610;48.872;2.400;2022-09-13T17:42:28;28.30;99.90
69418;DHT22;56610;48.872;2.400;2022-09-13T17:44:53;28.30;99.90
69418;DHT22;56610;48.872;2.400;2022-09-13T17:47:19;28.30;99.90
69418;DHT22;56610;48.872;2.400;2022-09-13T17:49:44;28.30;99.90
69418;DHT22;56610;48.872;2.400;2022-09-13T17:52:11;28.20;99.90
69418;DHT22;56610;48.872;2.400;2022-09-13T17:54:37;28.20;99.90
69418;DHT22;56610;48.872;2.400;2022-09-13T17:57:03;28.20;99.90
69418;DHT22;56610;48.872;2.400;2022-09-13T17:59:28;28.20;99.90
69418;DHT22;56610;48.872;2.400;2022-09-13T18:01:56;28.20;99.90
69418;DHT22;56610;48.872;2.400;2022-09-13T18:04:23;28.20;99.90
69418;DHT22;56610;48.872;2.400;2022-09-13T18:06:50;28.20;99.90
69418;DHT22;56610;48.872;2.400;2022-09-13T18:09:16;28.10;99.90
69418;DHT22;56610;48.872;2.400;2022-09-13T18:11:42;28.20;99.90
69418;DHT22;56610;48.872;2.400;2022-09-13T18:14:12;28.20;99.90
69418;DHT22;56610;48.872;2.400;2022-09-13T18:16:39;28.10;99.90
69418;DHT22;56610;48.872;2.400;2022-09-13T18:19:04;28.10;99.90
69418;DHT22;56610;48.872;2.400;2022-09-13T18:21:30;28.10;99.90
69418;DHT22;56610;48.872;2.400;2022-09-13T18:23:58;28.10;99.90
69418;DHT22;56610;48.872;2.400;2022-09-13T18:26:25;28.20;99.90
69418;DHT22;56610;48.872;2.400;2022-09-13T18:28:53;28.20;99.90
69418;DHT22;56610;48.872;2.400;2022-09-13T18:31:20;28.20;99.90
69418;DHT22;56610;48.872;2.400;2022-09-13T18:33:46;28.20;99.90
69418;DHT22;56610;48.872;2.400;2022-09-13T18:36:16;28.20;99.90
69418;DHT22;56610;48.872;2.400;2022-09-13T18:38:44;28.30;99.90
69418;DHT22;56610;48.872;2.400;2022-09-13T18:41:20;28.30;99.90
69418;DHT22;56610;48.872;2.400;2022-09-13T18:43:48;28.30;99.90
69418;DHT22;56610;48.872;2.400;2022-09-13T18:46:15;28.30;99.90
69418;DHT22;56610;48.872;2.400;2022-09-13T18:48:45;28.30;99.90
69418;DHT22;56610;48.872;2.400;2022-09-13T18:51:15;28.30;99.90
69418;DHT22;56610;48.872;2.400;2022-09-13T18:53:41;28.40;99.90